Terminal Aerodrome Forecast
Issued by NWS Bismarck, ND

Home | Current Version | Previous Version | Graphics & Text | Print | Product List | Glossary On
Versions: 1 2 3 4 5 6 7 8 9 10 11 12 13 14 15 16 17 18
000
FTUS43 KBIS 312331
TAFISN
TAF
KISN 312331Z 0100/0124 26010G24KT P6SM FEW250
     FM010200 20005KT P6SM FEW250
     FM011000 16005KT P6SM FEW100
     FM011800 19012KT P6SM SCT080=

USA.gov is the U.S. government's official web portal to all federal, state and local government web resources and services.